Main page
METAR-TAF:

METAR-TAF

Airports :

Singapore, Singapore

Singapore Changi Airport

latitude: 01-22N, longitude: 103-59E, elevation: 5 m

Current weather observation

The report was made 33 minutes ago, at 16:00 UTC
Wind 7 kt from the Southeast
Temperature 28°C
Humidity 84%
Pressure 1012 hPa
Visibility 10 km or more
no clouds below 1500 m and no cumulonimbus

METAR: WSSS 221600Z 14007KT CAVOK 28/25 Q1012 NOSIG

Time: 00:33 (16:33 UTC)

Forecast

The report was made 5 hours and 33 minutes ago, at 11:00 UTC
Forecast valid from 22 at 12 UTC to 23 at 18 UTC
Wind 9 kt from the South
Visibility 10 km or more
Few clouds at a height of 1800 ft, Cumulonimbus.
Scattered clouds at a height of 2000 ft

TAF: WSSS 221100Z 2212/2318 17009KT 9999 FEW018CB SCT020

Weather observations and forecasts of more than 4000 airports (METAR and TAF reports).

The available stations are represented by yellow and red dots on the map.

Hover mouse over dot to see the name of the station.

Then click to see weather observations and forecasts.

To change the map : click on the green buttons with a black cross to zoom in, on the green button with a dash to zoom out, or on the green arrows for adjacent maps.


METAR-TAF: